sensor_id;sensor_type;location;lat;lon;timestamp;pressure;altitude;pressure_sealevel;temperature;humidity
11676;BME280;5894;42.768;23.404;2023-07-30T00:00:33;95450.22;;;22.26;76.79
11676;BME280;5894;42.768;23.404;2023-07-30T00:03:00;95450.97;;;22.19;78.08
11676;BME280;5894;42.768;23.404;2023-07-30T00:05:27;95449.78;;;22.17;77.21
11676;BME280;5894;42.768;23.404;2023-07-30T00:07:56;95440.16;;;22.12;77.34
11676;BME280;5894;42.768;23.404;2023-07-30T00:10:23;95444.41;;;22.10;77.51
11676;BME280;5894;42.768;23.404;2023-07-30T00:12:50;95439.78;;;22.07;77.31
11676;BME280;5894;42.768;23.404;2023-07-30T00:15:17;95445.13;;;22.03;77.94
11676;BME280;5894;42.768;23.404;2023-07-30T00:17:44;95442.03;;;22.01;79.27
11676;BME280;5894;42.768;23.404;2023-07-30T00:20:11;95435.88;;;21.97;80.17
11676;BME280;5894;42.768;23.404;2023-07-30T00:22:38;95442.75;;;21.94;80.43
11676;BME280;5894;42.768;23.404;2023-07-30T00:25:07;95444.28;;;21.88;80.63
11676;BME280;5894;42.768;23.404;2023-07-30T00:27:35;95438.91;;;21.88;80.17
11676;BME280;5894;42.768;23.404;2023-07-30T00:30:02;95438.84;;;21.81;80.82
11676;BME280;5894;42.768;23.404;2023-07-30T00:32:29;95440.75;;;21.81;81.30
11676;BME280;5894;42.768;23.404;2023-07-30T00:34:56;95446.91;;;21.78;81.62
11676;BME280;5894;42.768;23.404;2023-07-30T00:37:24;95438.78;;;21.71;82.15
11676;BME280;5894;42.768;23.404;2023-07-30T00:39:51;95436.50;;;21.69;82.95
11676;BME280;5894;42.768;23.404;2023-07-30T00:42:20;95391.84;;;21.40;83.23
11676;BME280;5894;42.768;23.404;2023-07-30T00:44:47;95439.94;;;21.66;83.30
11676;BME280;5894;42.768;23.404;2023-07-30T00:47:14;95442.22;;;21.64;83.08
11676;BME280;5894;42.768;23.404;2023-07-30T00:49:41;95431.44;;;21.60;83.39
11676;BME280;5894;42.768;23.404;2023-07-30T00:52:08;95441.41;;;21.56;83.92
11676;BME280;5894;42.768;23.404;2023-07-30T00:54:36;95435.28;;;21.56;84.57
11676;BME280;5894;42.768;23.404;2023-07-30T00:57:03;95442.13;;;21.50;84.64
11676;BME280;5894;42.768;23.404;2023-07-30T00:59:33;95436.75;;;21.50;85.22
11676;BME280;5894;42.768;23.404;2023-07-30T01:02:00;95436.75;;;21.46;85.49
11676;BME280;5894;42.768;23.404;2023-07-30T01:04:29;95437.13;;;21.45;85.58
11676;BME280;5894;42.768;23.404;2023-07-30T01:06:56;95435.91;;;21.39;85.59
11676;BME280;5894;42.768;23.404;2023-07-30T01:09:23;95440.88;;;21.33;85.64
11676;BME280;5894;42.768;23.404;2023-07-30T01:11:53;95433.47;;;21.19;85.63
11676;BME280;5894;42.768;23.404;2023-07-30T01:14:22;95435.84;;;21.24;85.25
11676;BME280;5894;42.768;23.404;2023-07-30T01:16:53;95435.78;;;21.21;85.65
11676;BME280;5894;42.768;23.404;2023-07-30T01:19:20;95439.63;;;21.20;86.42
11676;BME280;5894;42.768;23.404;2023-07-30T01:21:48;95443.03;;;21.17;86.51
11676;BME280;5894;42.768;23.404;2023-07-30T01:24:15;95444.94;;;21.16;86.57
11676;BME280;5894;42.768;23.404;2023-07-30T01:26:44;95447.63;;;21.16;86.09
11676;BME280;5894;42.768;23.404;2023-07-30T01:29:16;95413.75;;;20.94;85.83
11676;BME280;5894;42.768;23.404;2023-07-30T01:31:54;95437.19;;;21.08;85.41
11676;BME280;5894;42.768;23.404;2023-07-30T01:34:23;95445.22;;;21.04;83.85
11676;BME280;5894;42.768;23.404;2023-07-30T01:36:53;95406.75;;;20.82;83.81
11676;BME280;5894;42.768;23.404;2023-07-30T01:39:21;95440.56;;;20.98;83.82
11676;BME280;5894;42.768;23.404;2023-07-30T01:41:48;95436.72;;;20.95;83.52
11676;BME280;5894;42.768;23.404;2023-07-30T01:44:15;95445.13;;;20.94;84.50
11676;BME280;5894;42.768;23.404;2023-07-30T01:46:42;95439.03;;;20.97;84.99
11676;BME280;5894;42.768;23.404;2023-07-30T01:49:09;95442.44;;;20.94;85.30
11676;BME280;5894;42.768;23.404;2023-07-30T01:51:36;95429.38;;;20.88;85.84
11676;BME280;5894;42.768;23.404;2023-07-30T01:54:05;95442.03;;;20.92;86.27
11676;BME280;5894;42.768;23.404;2023-07-30T01:56:32;95433.63;;;20.93;86.14
11676;BME280;5894;42.768;23.404;2023-07-30T01:58:59;95437.06;;;20.90;87.01
11676;BME280;5894;42.768;23.404;2023-07-30T02:01:26;95437.78;;;20.87;88.12
11676;BME280;5894;42.768;23.404;2023-07-30T02:03:53;95450.03;;;20.84;90.04
11676;BME280;5894;42.768;23.404;2023-07-30T02:06:20;95451.91;;;20.80;93.47
11676;BME280;5894;42.768;23.404;2023-07-30T02:08:47;95450.75;;;20.81;94.89
11676;BME280;5894;42.768;23.404;2023-07-30T02:11:15;95456.84;;;20.78;97.13
11676;BME280;5894;42.768;23.404;2023-07-30T02:13:42;95453.03;;;20.76;97.34
11676;BME280;5894;42.768;23.404;2023-07-30T02:16:09;95461.03;;;20.72;97.19
11676;BME280;5894;42.768;23.404;2023-07-30T02:18:36;95459.84;;;20.70;96.29
11676;BME280;5894;42.768;23.404;2023-07-30T02:21:03;95457.88;;;20.67;95.43
11676;BME280;5894;42.768;23.404;2023-07-30T02:23:30;95456.38;;;20.66;95.72
11676;BME280;5894;42.768;23.404;2023-07-30T02:25:57;95459.78;;;20.66;95.44
11676;BME280;5894;42.768;23.404;2023-07-30T02:28:26;95452.94;;;20.69;95.60
11676;BME280;5894;42.768;23.404;2023-07-30T02:30:52;95459.13;;;20.73;95.63
11676;BME280;5894;42.768;23.404;2023-07-30T02:33:19;95459.13;;;20.73;95.57
11676;BME280;5894;42.768;23.404;2023-07-30T02:35:46;95470.97;;;20.72;95.90
11676;BME280;5894;42.768;23.404;2023-07-30T02:38:14;95469.38;;;20.67;95.83
11676;BME280;5894;42.768;23.404;2023-07-30T02:40:41;95468.19;;;20.61;96.69
11676;BME280;5894;42.768;23.404;2023-07-30T02:43:08;95466.22;;;20.58;97.08
11676;BME280;5894;42.768;23.404;2023-07-30T02:45:37;95473.84;;;20.56;97.04
11676;BME280;5894;42.768;23.404;2023-07-30T02:48:04;95471.59;;;20.58;97.44
11676;BME280;5894;42.768;23.404;2023-07-30T02:50:31;95465.44;;;20.54;97.41
11676;BME280;5894;42.768;23.404;2023-07-30T02:52:58;95468.88;;;20.55;97.54
11676;BME280;5894;42.768;23.404;2023-07-30T02:55:25;95475.38;;;20.54;97.95
11676;BME280;5894;42.768;23.404;2023-07-30T02:57:52;95477.25;;;20.49;97.66
11676;BME280;5894;42.768;23.404;2023-07-30T03:00:19;95477.97;;;20.46;97.75
11676;BME280;5894;42.768;23.404;2023-07-30T03:02:48;95479.16;;;20.49;97.68
11676;BME280;5894;42.768;23.404;2023-07-30T03:05:15;95469.19;;;20.49;97.85
11676;BME280;5894;42.768;23.404;2023-07-30T03:07:43;95473.38;;;20.47;97.88
11676;BME280;5894;42.768;23.404;2023-07-30T03:10:10;95473.34;;;20.43;97.65
11676;BME280;5894;42.768;23.404;2023-07-30T03:12:37;95476.41;;;20.42;97.63
11676;BME280;5894;42.768;23.404;2023-07-30T03:15:05;95476.31;;;20.35;97.53
11676;BME280;5894;42.768;23.404;2023-07-30T03:17:32;95477.38;;;20.30;97.00
11676;BME280;5894;42.768;23.404;2023-07-30T03:20:01;95421.84;;;19.94;94.52
11676;BME280;5894;42.768;23.404;2023-07-30T03:22:28;95481.53;;;20.24;94.54
11676;BME280;5894;42.768;23.404;2023-07-30T03:24:55;95482.25;;;20.21;94.13
11676;BME280;5894;42.768;23.404;2023-07-30T03:27:22;95481.41;;;20.17;93.98
11676;BME280;5894;42.768;23.404;2023-07-30T03:29:49;95489.03;;;20.15;94.58
11676;BME280;5894;42.768;23.404;2023-07-30T03:32:16;95482.06;;;20.07;95.16
11676;BME280;5894;42.768;23.404;2023-07-30T03:34:43;95465.16;;;19.99;95.17
11676;BME280;5894;42.768;23.404;2023-07-30T03:37:12;95478.31;;;20.11;95.05
11676;BME280;5894;42.768;23.404;2023-07-30T03:39:39;95480.22;;;20.11;95.99
11676;BME280;5894;42.768;23.404;2023-07-30T03:42:06;95475.16;;;20.06;96.79
11676;BME280;5894;42.768;23.404;2023-07-30T03:44:34;95483.53;;;20.01;97.15
11676;BME280;5894;42.768;23.404;2023-07-30T03:47:02;95481.22;;;19.99;97.15
11676;BME280;5894;42.768;23.404;2023-07-30T03:49:29;95476.97;;;19.98;97.73
11676;BME280;5894;42.768;23.404;2023-07-30T03:51:55;95482.34;;;19.98;98.10
11676;BME280;5894;42.768;23.404;2023-07-30T03:54:24;95485.38;;;19.97;97.82
11676;BME280;5894;42.768;23.404;2023-07-30T03:56:52;95484.59;;;19.96;96.84
11676;BME280;5894;42.768;23.404;2023-07-30T03:59:19;95482.66;;;19.93;97.08
11676;BME280;5894;42.768;23.404;2023-07-30T04:01:47;95487.25;;;19.93;97.08
11676;BME280;5894;42.768;23.404;2023-07-30T04:04:14;95494.13;;;19.94;96.66
11676;BME280;5894;42.768;23.404;2023-07-30T04:06:41;95489.94;;;19.93;96.69
11676;BME280;5894;42.768;23.404;2023-07-30T04:09:08;95496.78;;;19.94;96.81
11676;BME280;5894;42.768;23.404;2023-07-30T04:11:38;95494.91;;;19.94;96.80
11676;BME280;5894;42.768;23.404;2023-07-30T04:14:05;95491.09;;;19.95;97.14
11676;BME280;5894;42.768;23.404;2023-07-30T04:16:34;95485.72;;;19.95;98.02
11676;BME280;5894;42.768;23.404;2023-07-30T04:19:01;95489.50;;;19.91;98.62
11676;BME280;5894;42.768;23.404;2023-07-30T04:21:28;95492.59;;;19.93;99.00
11676;BME280;5894;42.768;23.404;2023-07-30T04:23:55;95488.75;;;19.94;99.40
11676;BME280;5894;42.768;23.404;2023-07-30T04:26:22;95493.00;;;19.95;100.00
11676;BME280;5894;42.768;23.404;2023-07-30T04:28:51;95493.41;;;19.97;100.00
11676;BME280;5894;42.768;23.404;2023-07-30T04:31:18;95494.19;;;19.97;100.00
11676;BME280;5894;42.768;23.404;2023-07-30T04:33:45;95494.59;;;19.99;100.00
11676;BME280;5894;42.768;23.404;2023-07-30T04:36:12;95501.91;;;20.02;100.00
11676;BME280;5894;42.768;23.404;2023-07-30T04:38:39;95501.91;;;20.02;100.00
11676;BME280;5894;42.768;23.404;2023-07-30T04:41:07;95500.81;;;20.07;100.00
11676;BME280;5894;42.768;23.404;2023-07-30T04:43:40;95509.66;;;20.11;100.00
11676;BME280;5894;42.768;23.404;2023-07-30T04:46:08;95502.41;;;20.11;100.00
11676;BME280;5894;42.768;23.404;2023-07-30T04:48:39;95500.94;;;20.17;100.00
11676;BME280;5894;42.768;23.404;2023-07-30T04:51:06;95504.38;;;20.18;100.00
11676;BME280;5894;42.768;23.404;2023-07-30T04:53:33;95503.66;;;20.21;100.00
11676;BME280;5894;42.768;23.404;2023-07-30T04:56:00;95508.31;;;20.28;100.00
11676;BME280;5894;42.768;23.404;2023-07-30T04:58:27;95489.44;;;20.17;100.00
11676;BME280;5894;42.768;23.404;2023-07-30T05:00:55;95514.19;;;20.37;100.00
11676;BME280;5894;42.768;23.404;2023-07-30T05:03:24;95514.25;;;20.40;100.00
11676;BME280;5894;42.768;23.404;2023-07-30T05:05:51;95510.50;;;20.45;100.00
11676;BME280;5894;42.768;23.404;2023-07-30T05:08:17;95506.75;;;20.53;100.00
11676;BME280;5894;42.768;23.404;2023-07-30T05:10:45;95507.59;;;20.61;100.00
11676;BME280;5894;42.768;23.404;2023-07-30T05:13:11;95509.63;;;20.71;100.00
11676;BME280;5894;42.768;23.404;2023-07-30T05:15:39;95510.88;;;20.80;100.00
11676;BME280;5894;42.768;23.404;2023-07-30T05:18:06;95511.00;;;20.95;100.00
11676;BME280;5894;42.768;23.404;2023-07-30T05:20:34;95515.75;;;21.12;100.00
11676;BME280;5894;42.768;23.404;2023-07-30T05:23:01;95514.38;;;21.29;100.00
11676;BME280;5894;42.768;23.404;2023-07-30T05:25:28;95506.09;;;21.44;100.00
11676;BME280;5894;42.768;23.404;2023-07-30T05:27:55;95509.66;;;21.59;100.00
11676;BME280;5894;42.768;23.404;2023-07-30T05:30:22;95505.88;;;21.71;99.64
11676;BME280;5894;42.768;23.404;2023-07-30T05:32:49;95512.13;;;21.85;98.13
11676;BME280;5894;42.768;23.404;2023-07-30T05:35:16;95506.81;;;21.96;97.46
11676;BME280;5894;42.768;23.404;2023-07-30T05:37:45;95504.59;;;22.05;94.48
11676;BME280;5894;42.768;23.404;2023-07-30T05:40:12;95508.88;;;22.17;92.18
11676;BME280;5894;42.768;23.404;2023-07-30T05:42:39;95513.16;;;22.28;92.48
11676;BME280;5894;42.768;23.404;2023-07-30T05:45:07;95505.88;;;22.36;92.98
11676;BME280;5894;42.768;23.404;2023-07-30T05:47:35;95509.38;;;22.47;91.84
11676;BME280;5894;42.768;23.404;2023-07-30T05:50:02;95481.34;;;22.38;90.00
11676;BME280;5894;42.768;23.404;2023-07-30T05:52:29;95514.47;;;22.70;88.30
11676;BME280;5894;42.768;23.404;2023-07-30T05:54:58;95517.97;;;22.81;85.89
11676;BME280;5894;42.768;23.404;2023-07-30T05:57:25;95514.53;;;22.88;84.51
11676;BME280;5894;42.768;23.404;2023-07-30T05:59:52;95516.47;;;22.98;83.96
11676;BME280;5894;42.768;23.404;2023-07-30T06:02:19;95519.16;;;23.05;83.59
11676;BME280;5894;42.768;23.404;2023-07-30T06:04:46;95518.03;;;23.13;83.58
11676;BME280;5894;42.768;23.404;2023-07-30T06:07:14;95513.44;;;23.21;83.60
11676;BME280;5894;42.768;23.404;2023-07-30T06:09:41;95521.88;;;23.26;83.15
11676;BME280;5894;42.768;23.404;2023-07-30T06:12:09;95520.72;;;23.31;82.08
11676;BME280;5894;42.768;23.404;2023-07-30T06:14:36;95521.50;;;23.38;81.11
11676;BME280;5894;42.768;23.404;2023-07-30T06:17:03;95521.13;;;23.43;80.12
11676;BME280;5894;42.768;23.404;2023-07-30T06:19:30;95518.03;;;23.49;79.44
11676;BME280;5894;42.768;23.404;2023-07-30T06:21:57;95511.53;;;23.50;80.72
11676;BME280;5894;42.768;23.404;2023-07-30T06:24:26;95509.25;;;23.55;80.59
11676;BME280;5894;42.768;23.404;2023-07-30T06:26:52;95516.16;;;23.60;81.36
11676;BME280;5894;42.768;23.404;2023-07-30T06:29:21;95516.16;;;23.67;80.92
11676;BME280;5894;42.768;23.404;2023-07-30T06:31:48;95511.13;;;23.72;80.54
11676;BME280;5894;42.768;23.404;2023-07-30T06:34:15;95516.91;;;23.82;79.94
11676;BME280;5894;42.768;23.404;2023-07-30T06:36:42;95512.25;;;23.89;79.35
11676;BME280;5894;42.768;23.404;2023-07-30T06:39:09;95503.41;;;23.92;79.19
11676;BME280;5894;42.768;23.404;2023-07-30T06:41:36;95504.53;;;24.02;80.65
11676;BME280;5894;42.768;23.404;2023-07-30T06:44:03;95503.34;;;24.13;80.18
11676;BME280;5894;42.768;23.404;2023-07-30T06:46:32;95498.72;;;24.25;79.64
11676;BME280;5894;42.768;23.404;2023-07-30T06:48:59;95495.25;;;24.28;78.91
11676;BME280;5894;42.768;23.404;2023-07-30T06:51:26;95481.41;;;24.29;79.62
11676;BME280;5894;42.768;23.404;2023-07-30T06:53:54;95487.88;;;24.46;78.75
11676;BME280;5894;42.768;23.404;2023-07-30T06:56:21;95484.34;;;24.52;77.90
11676;BME280;5894;42.768;23.404;2023-07-30T06:58:48;95480.06;;;24.69;78.29
11676;BME280;5894;42.768;23.404;2023-07-30T07:01:15;95467.34;;;24.70;74.93
11676;BME280;5894;42.768;23.404;2023-07-30T07:03:44;95478.38;;;24.97;73.05
11676;BME280;5894;42.768;23.404;2023-07-30T07:06:11;95483.69;;;25.07;69.79
11676;BME280;5894;42.768;23.404;2023-07-30T07:08:37;95477.06;;;25.15;70.87
11676;BME280;5894;42.768;23.404;2023-07-30T07:11:04;95476.94;;;25.33;70.20
11676;BME280;5894;42.768;23.404;2023-07-30T07:13:32;95480.28;;;25.48;71.17
11676;BME280;5894;42.768;23.404;2023-07-30T07:15:58;95470.94;;;25.56;67.51
11676;BME280;5894;42.768;23.404;2023-07-30T07:18:25;95473.19;;;25.68;65.07
11676;BME280;5894;42.768;23.404;2023-07-30T07:20:54;95464.13;;;25.85;65.19
11676;BME280;5894;42.768;23.404;2023-07-30T07:23:21;95460.47;;;26.03;58.57
11676;BME280;5894;42.768;23.404;2023-07-30T07:25:48;95456.44;;;26.18;58.15
11676;BME280;5894;42.768;23.404;2023-07-30T07:28:15;95455.84;;;26.37;58.17
11676;BME280;5894;42.768;23.404;2023-07-30T07:30:43;95453.94;;;26.64;61.09
11676;BME280;5894;42.768;23.404;2023-07-30T07:33:10;95446.84;;;26.74;56.78
11676;BME280;5894;42.768;23.404;2023-07-30T07:35:38;95427.03;;;26.81;56.31
11676;BME280;5894;42.768;23.404;2023-07-30T07:38:06;95443.47;;;27.20;55.44
11676;BME280;5894;42.768;23.404;2023-07-30T07:40:36;95445.00;;;27.45;53.22
11676;BME280;5894;42.768;23.404;2023-07-30T07:43:05;95444.19;;;27.71;56.11
11676;BME280;5894;42.768;23.404;2023-07-30T07:45:32;95441.72;;;28.00;54.99
11676;BME280;5894;42.768;23.404;2023-07-30T07:47:58;95445.16;;;28.24;54.71
11676;BME280;5894;42.768;23.404;2023-07-30T07:50:25;95449.28;;;28.48;53.91
11676;BME280;5894;42.768;23.404;2023-07-30T07:52:52;95439.09;;;28.72;51.60
11676;BME280;5894;42.768;23.404;2023-07-30T07:55:21;95442.53;;;28.92;51.43
11676;BME280;5894;42.768;23.404;2023-07-30T07:57:48;95436.97;;;29.15;50.09
11676;BME280;5894;42.768;23.404;2023-07-30T08:00:15;95434.00;;;29.42;49.20
11676;BME280;5894;42.768;23.404;2023-07-30T08:02:42;95435.97;;;29.71;48.76
11676;BME280;5894;42.768;23.404;2023-07-30T08:05:09;95436.88;;;29.97;47.65
11676;BME280;5894;42.768;23.404;2023-07-30T08:07:36;95431.84;;;30.24;46.81
11676;BME280;5894;42.768;23.404;2023-07-30T08:10:04;95419.38;;;30.39;44.88
11676;BME280;5894;42.768;23.404;2023-07-30T08:12:33;95426.72;;;30.68;44.99
11676;BME280;5894;42.768;23.404;2023-07-30T08:15:00;95426.06;;;30.89;43.08
11676;BME280;5894;42.768;23.404;2023-07-30T08:17:27;95420.31;;;31.12;43.67
11676;BME280;5894;42.768;23.404;2023-07-30T08:19:54;95417.94;;;31.36;42.85
11676;BME280;5894;42.768;23.404;2023-07-30T08:22:21;95421.38;;;31.62;42.76
11676;BME280;5894;42.768;23.404;2023-07-30T08:24:48;95421.31;;;31.87;41.76
11676;BME280;5894;42.768;23.404;2023-07-30T08:27:15;95410.91;;;32.17;41.83
11676;BME280;5894;42.768;23.404;2023-07-30T08:29:44;95410.75;;;32.42;40.44
11676;BME280;5894;42.768;23.404;2023-07-30T08:32:10;95409.97;;;32.63;39.93
11676;BME280;5894;42.768;23.404;2023-07-30T08:34:38;95407.19;;;32.85;40.05
11676;BME280;5894;42.768;23.404;2023-07-30T08:37:06;95409.72;;;33.10;39.47
11676;BME280;5894;42.768;23.404;2023-07-30T08:39:33;95402.78;;;33.28;38.12
11676;BME280;5894;42.768;23.404;2023-07-30T08:42:00;95402.16;;;33.24;38.45
11676;BME280;5894;42.768;23.404;2023-07-30T08:44:27;95396.69;;;33.24;37.97
11676;BME280;5894;42.768;23.404;2023-07-30T08:46:56;95388.81;;;33.35;38.31
11676;BME280;5894;42.768;23.404;2023-07-30T08:49:24;95383.97;;;33.39;38.42
11676;BME280;5894;42.768;23.404;2023-07-30T08:51:54;95356.72;;;33.17;39.08
11676;BME280;5894;42.768;23.404;2023-07-30T08:54:22;95387.59;;;33.45;38.74
11676;BME280;5894;42.768;23.404;2023-07-30T08:56:50;95386.56;;;33.42;37.89
11676;BME280;5894;42.768;23.404;2023-07-30T08:59:18;95403.25;;;33.35;37.43
11676;BME280;5894;42.768;23.404;2023-07-30T09:01:47;95386.38;;;33.28;37.17
11676;BME280;5894;42.768;23.404;2023-07-30T09:04:18;95377.84;;;33.16;37.04
11676;BME280;5894;42.768;23.404;2023-07-30T09:06:48;95382.53;;;33.07;37.57
11676;BME280;5894;42.768;23.404;2023-07-30T09:09:15;95344.34;;;32.76;37.72
11676;BME280;5894;42.768;23.404;2023-07-30T09:11:42;95376.41;;;32.94;38.00
11676;BME280;5894;42.768;23.404;2023-07-30T09:14:10;95371.25;;;32.87;37.74
11676;BME280;5894;42.768;23.404;2023-07-30T09:16:37;95374.84;;;32.74;37.51
11676;BME280;5894;42.768;23.404;2023-07-30T09:19:05;95375.50;;;32.57;37.44
11676;BME280;5894;42.768;23.404;2023-07-30T09:21:34;95362.88;;;32.50;37.16
11676;BME280;5894;42.768;23.404;2023-07-30T09:24:02;95369.38;;;32.43;36.60
11676;BME280;5894;42.768;23.404;2023-07-30T09:26:39;95364.00;;;32.31;36.39
11676;BME280;5894;42.768;23.404;2023-07-30T09:29:08;95365.50;;;32.23;37.00
11676;BME280;5894;42.768;23.404;2023-07-30T09:31:49;95360.91;;;32.20;36.66
11676;BME280;5894;42.768;23.404;2023-07-30T09:34:17;95325.88;;;31.87;35.74
11676;BME280;5894;42.768;23.404;2023-07-30T09:36:45;95352.66;;;31.89;35.78
11676;BME280;5894;42.768;23.404;2023-07-30T09:39:16;95356.75;;;31.84;36.07
11676;BME280;5894;42.768;23.404;2023-07-30T09:41:45;95345.63;;;31.79;36.38
11676;BME280;5894;42.768;23.404;2023-07-30T09:44:12;95343.75;;;31.66;36.43
11676;BME280;5894;42.768;23.404;2023-07-30T09:46:43;95327.88;;;31.52;35.88
11676;BME280;5894;42.768;23.404;2023-07-30T09:49:10;95347.00;;;31.61;35.69
11676;BME280;5894;42.768;23.404;2023-07-30T09:51:38;95302.25;;;31.28;36.61
11676;BME280;5894;42.768;23.404;2023-07-30T09:54:07;95336.03;;;31.52;36.02
11676;BME280;5894;42.768;23.404;2023-07-30T09:56:35;95306.16;;;31.27;35.25
11676;BME280;5894;42.768;23.404;2023-07-30T09:59:03;95334.44;;;31.42;32.88
11676;BME280;5894;42.768;23.404;2023-07-30T10:01:31;95332.28;;;31.37;34.52
11676;BME280;5894;42.768;23.404;2023-07-30T10:03:59;95325.56;;;31.29;35.32
11676;BME280;5894;42.768;23.404;2023-07-30T10:06:33;95330.06;;;31.23;35.61
11676;BME280;5894;42.768;23.404;2023-07-30T10:09:03;95318.41;;;31.22;36.03
11676;BME280;5894;42.768;23.404;2023-07-30T10:11:32;95311.22;;;31.16;36.19
11676;BME280;5894;42.768;23.404;2023-07-30T10:13:59;95303.19;;;31.12;36.87
11676;BME280;5894;42.768;23.404;2023-07-30T10:16:27;95305.56;;;31.10;37.16
11676;BME280;5894;42.768;23.404;2023-07-30T10:18:56;95295.13;;;30.96;37.08
11676;BME280;5894;42.768;23.404;2023-07-30T10:21:25;95306.22;;;31.01;36.79
11676;BME280;5894;42.768;23.404;2023-07-30T10:23:59;95301.66;;;30.98;36.24
11676;BME280;5894;42.768;23.404;2023-07-30T10:26:27;95289.47;;;30.90;36.92
11676;BME280;5894;42.768;23.404;2023-07-30T10:29:12;95286.75;;;30.90;36.22
11676;BME280;5894;42.768;23.404;2023-07-30T10:31:40;95293.50;;;30.86;37.16
11676;BME280;5894;42.768;23.404;2023-07-30T10:34:09;95287.44;;;30.82;35.89
11676;BME280;5894;42.768;23.404;2023-07-30T10:36:44;95280.47;;;30.81;35.86
11676;BME280;5894;42.768;23.404;2023-07-30T10:39:14;95275.91;;;30.78;36.11
11676;BME280;5894;42.768;23.404;2023-07-30T10:41:43;95273.84;;;30.69;35.52
11676;BME280;5894;42.768;23.404;2023-07-30T10:44:21;95277.84;;;30.77;35.35
11676;BME280;5894;42.768;23.404;2023-07-30T10:46:49;95267.72;;;30.78;35.80
11676;BME280;5894;42.768;23.404;2023-07-30T10:49:16;95270.13;;;30.76;36.18
11676;BME280;5894;42.768;23.404;2023-07-30T10:51:42;95261.53;;;30.77;36.03
11676;BME280;5894;42.768;23.404;2023-07-30T10:54:09;95257.28;;;30.76;36.42
11676;BME280;5894;42.768;23.404;2023-07-30T10:56:37;95257.28;;;30.76;36.11
11676;BME280;5894;42.768;23.404;2023-07-30T10:59:05;95215.31;;;30.52;34.78
11676;BME280;5894;42.768;23.404;2023-07-30T11:01:38;95248.13;;;30.83;35.03
11676;BME280;5894;42.768;23.404;2023-07-30T11:04:07;95242.69;;;30.83;35.28
11676;BME280;5894;42.768;23.404;2023-07-30T11:06:34;95247.13;;;30.89;35.50
11676;BME280;5894;42.768;23.404;2023-07-30T11:09:01;95244.41;;;30.89;35.48
11676;BME280;5894;42.768;23.404;2023-07-30T11:11:28;95235.03;;;30.90;34.46
11676;BME280;5894;42.768;23.404;2023-07-30T11:13:56;95219.38;;;30.82;36.42
11676;BME280;5894;42.768;23.404;2023-07-30T11:16:24;95233.06;;;30.91;36.56
11676;BME280;5894;42.768;23.404;2023-07-30T11:18:54;95228.91;;;30.99;35.22
11676;BME280;5894;42.768;23.404;2023-07-30T11:21:21;95218.66;;;31.03;34.93
11676;BME280;5894;42.768;23.404;2023-07-30T11:23:50;95212.00;;;31.04;35.62
11676;BME280;5894;42.768;23.404;2023-07-30T11:26:18;95208.31;;;30.98;36.28
11676;BME280;5894;42.768;23.404;2023-07-30T11:28:46;95204.47;;;31.08;35.74
11676;BME280;5894;42.768;23.404;2023-07-30T11:31:15;95202.25;;;31.16;34.82
11676;BME280;5894;42.768;23.404;2023-07-30T11:33:43;95202.91;;;31.20;36.70
11676;BME280;5894;42.768;23.404;2023-07-30T11:36:15;95199.75;;;31.21;35.50
11676;BME280;5894;42.768;23.404;2023-07-30T11:38:42;95196.63;;;31.32;36.09
11676;BME280;5894;42.768;23.404;2023-07-30T11:41:10;95205.19;;;31.43;35.06
11676;BME280;5894;42.768;23.404;2023-07-30T11:43:39;95204.91;;;31.50;35.15
11676;BME280;5894;42.768;23.404;2023-07-30T11:46:08;95190.25;;;31.57;36.23
11676;BME280;5894;42.768;23.404;2023-07-30T11:48:35;95195.31;;;31.67;35.45
11676;BME280;5894;42.768;23.404;2023-07-30T11:51:03;95188.84;;;31.74;35.72
11676;BME280;5894;42.768;23.404;2023-07-30T11:53:48;95181.47;;;31.84;36.16
11676;BME280;5894;42.768;23.404;2023-07-30T11:56:23;95149.50;;;31.75;34.73
11676;BME280;5894;42.768;23.404;2023-07-30T11:58:53;95178.38;;;32.13;34.16
11676;BME280;5894;42.768;23.404;2023-07-30T12:01:20;95178.44;;;32.22;34.46
11676;BME280;5894;42.768;23.404;2023-07-30T12:03:49;95167.84;;;32.33;34.83
11676;BME280;5894;42.768;23.404;2023-07-30T12:06:16;95167.28;;;32.38;32.98
11676;BME280;5894;42.768;23.404;2023-07-30T12:08:43;95158.94;;;32.51;34.40
11676;BME280;5894;42.768;23.404;2023-07-30T12:11:13;95158.53;;;32.70;33.86
11676;BME280;5894;42.768;23.404;2023-07-30T12:13:44;95151.53;;;32.97;31.81
11676;BME280;5894;42.768;23.404;2023-07-30T12:16:12;95155.16;;;33.03;31.16
11676;BME280;5894;42.768;23.404;2023-07-30T12:18:39;95155.91;;;33.22;31.84
11676;BME280;5894;42.768;23.404;2023-07-30T12:21:07;95150.25;;;33.52;32.15
11676;BME280;5894;42.768;23.404;2023-07-30T12:23:37;95146.78;;;33.85;31.29
11676;BME280;5894;42.768;23.404;2023-07-30T12:26:04;95134.06;;;34.06;31.62
11676;BME280;5894;42.768;23.404;2023-07-30T12:28:33;95134.56;;;34.28;30.55
11676;BME280;5894;42.768;23.404;2023-07-30T12:31:00;95141.50;;;34.38;27.68
11676;BME280;5894;42.768;23.404;2023-07-30T12:33:27;95126.66;;;34.54;30.48
11676;BME280;5894;42.768;23.404;2023-07-30T12:35:54;95134.09;;;34.77;31.06
11676;BME280;5894;42.768;23.404;2023-07-30T12:38:21;95116.25;;;34.96;28.59
11676;BME280;5894;42.768;23.404;2023-07-30T12:40:48;95117.69;;;35.07;28.34
11676;BME280;5894;42.768;23.404;2023-07-30T12:43:16;95117.25;;;35.38;27.10
11676;BME280;5894;42.768;23.404;2023-07-30T12:45:47;95119.84;;;35.61;27.45
11676;BME280;5894;42.768;23.404;2023-07-30T12:48:14;95112.66;;;35.79;28.50
11676;BME280;5894;42.768;23.404;2023-07-30T12:50:41;95103.56;;;35.87;28.86
11676;BME280;5894;42.768;23.404;2023-07-30T12:53:08;95106.16;;;35.96;28.58
11676;BME280;5894;42.768;23.404;2023-07-30T12:55:35;95104.34;;;36.08;28.18
11676;BME280;5894;42.768;23.404;2023-07-30T12:58:03;95099.19;;;36.16;28.41
11676;BME280;5894;42.768;23.404;2023-07-30T13:00:31;95097.09;;;36.25;27.88
11676;BME280;5894;42.768;23.404;2023-07-30T13:03:00;95094.47;;;36.36;28.60